Local Weather Ingen bokad jour idag Monday 26th of August
Flygplats METAR TAF
Airport METAR TAF
ESSL - Linköping260320Z 00000KT CAVOK 14/13 Q1025= 260330Z 2604/2612 VRB02KT CAVOK=
ESSP - Norrköping260320Z AUTO 00000KT 1000 R09/P1500N R27/P1500N BCFG NCD 11/11 Q1025= NO VALID TAF PUBLISHED
ESGJ - Jönköping260320Z AUTO 22002KT 0700 R01/1200N R19/P1500N NCD 09/09 Q1025= 260230Z 2603/2612 20004KT CAVOK PROB40 2603/2606 0300 FG NSC=
ESKN - Skavsta260320Z 00000KT 9999 BCFG NSC 11/11 Q1024= 252330Z 2600/2624 VRB02KT CAVOK PROB40 2602/2605 2000 BR BECMG 2611/2613 17010KT=
ESSV - Visby260320Z AUTO 20004KT 4700 NCD 14/14 Q1025= 260230Z 2603/2612 21004KT CAVOK PROB40 2603/2606 0300 FG VV002=
ESGG - Göteborg260320Z 14006KT CAVOK 14/13 Q1024= 252330Z 2600/2624 11004KT CAVOK=
FLEET STATUS
Flygplan Tid till service Tid till flygstopp Flygtid Landningar
Aircraft Time to service Time to stop Total time Landings
SE-IUD27.1 h37.1 h11 672.9 h23 416 st.
SE-KIT1.9 h11.9 h11 898.1 h22 843 st.
SE-KMH38.7 h43.7 h16 011.3 h59 909 st.
SE-LRL17.5 h27.5 h732.5 h1 296 st.
SE-MEB12.6 h17.6 h1 437.4 h4 309 st.
SE-SIMN/AN/A1 192.2 h85 st.
PPR
Ankomst Avgång Flygplan Namn Bränsle
Arrival Departure Aircraft Name Fuel
26/8 07:3027/8 17:30SELGLTony AlbinssonInget
NOTAM
>>> ESSL/LINKOPING/SAAB <<<
+ OM RWY 11 U/S, REPLACED BY SC FROM: 23 AUG 2019 05:17 TO: 30 AUG 2019 16:00 EST ES/B2806/19 - OCA/OCH CHANGED FOR ESSL LOC RWY 11 MINIMA RAISED TO CAT A-D: OCA 690 FT OCH 550 FT CIRCLING NE RWY RAISED TO CAT A-B: OCA 810 FT OCH 640 FT CAT C-D: OCA 900 FT OCH 730 FT FROM: 16 AUG 2019 09:31 TO: PERM ES/B2708/19 - TRIGGER NOTAM - PERM AIRAC AIP AMDT 5/19 WEF 15 AUG 2019. TWR FREQ WITHDRAWN, REFF, R-TWR. FROM: 15 AUG 2019 00:00 TO: 28 AUG 2019 23:59 ES/B2214/19 - AERODROME CONTROL TOWER (TWR) HOURS OF SERVICE ARE NOW MON-FRI 0345-2115 SAT 0345-0445 1415-1530 2015-2115, SUN 0345-0445 1500-1615 2015-2115 FROM: 05 AUG 2019 00:00 TO: 01 SEP 2019 23:59 ES/B2387/19 CONTINUES ON NEXT PAGE ISSUED: 26 AUG 2019 03:25 UTC PAGE: 5(13) - ATTENTION UNMANNED AIRCRAFT. ADDITION TO REGULATION TSFS 2017 110. THE LIMITATIONS IN REGULATION TSFS 2017 110 CHAPTER 3 PARAGRPH 3 APPLIES EVEN THOUGH THE AIRPORT IS CLOSED AND SAAB AND MALMEN CTR ARE NOT ESTABLISHED. FROM: 23 JUL 2019 11:14 TO: 02 SEP 2019 09:00 EST ES/B2401/19
>>> ESCF/LINKOPING/MALMEN <<<